Time;durP1;ratioP1;P1;durP2;ratioP2;P2;SDS_P1;SDS_P2;PMS_P1;PMS_P2;Temp;Humidity;BMP_temperature;BMP_pressure;BME280_temperature;BME280_humidity;BME280_pressure;Samples;Min_cycle;Max_cycle;Signal;HPM_P1;HPM_P2
2021/03/31 00:03:42;;;;;;;14.40;7.95;;;;;;;11.65;59.56;102370.59;10540989;28;20048;-78
2021/03/31 00:08:43;;;;;;;12.48;7.55;;;;;;;11.35;60.30;102346.25;10558362;28;20043;-78
2021/03/31 00:13:44;;;;;;;11.85;7.35;;;;;;;11.60;61.58;102395.19;10559328;28;20044;-79
2021/03/31 00:18:44;;;;;;;15.88;7.10;;;;;;;11.41;61.35;102366.59;10540729;28;20027;-77
2021/03/31 00:23:45;;;;;;;19.13;8.38;;;;;;;11.15;60.14;102330.78;10541084;28;20118;-77
2021/03/31 00:28:46;;;;;;;16.73;8.95;;;;;;;11.35;59.54;102362.50;10567370;28;20055;-78
2021/03/31 00:33:46;;;;;;;16.60;8.48;;;;;;;11.14;59.30;102318.34;10510896;28;20348;-78
2021/03/31 00:38:46;;;;;;;16.55;9.25;;;;;;;10.70;59.56;102258.22;10556123;28;20035;-76
2021/03/31 00:43:47;;;;;;;20.95;9.93;;;;;;;11.08;57.51;102306.13;10555856;28;20388;-76
2021/03/31 00:48:47;;;;;;;20.60;10.10;;;;;;;11.30;56.62;102342.94;10545115;28;20052;-76
2021/03/31 00:53:48;;;;;;;17.58;9.48;;;;;;;11.05;57.38;102309.47;10543736;28;20415;-78
2021/03/31 00:58:48;;;;;;;15.05;8.65;;;;;;;11.28;57.29;102335.13;10533913;28;20038;-76
2021/03/31 01:03:49;;;;;;;17.45;9.55;;;;;;;11.20;57.14;102328.66;10557665;27;20043;-76
2021/03/31 01:08:49;;;;;;;21.17;9.40;;;;;;;10.98;56.59;102305.38;10481577;28;20048;-76
2021/03/31 01:14:18;;;;;;;20.17;11.25;;;;;;;11.03;56.13;102306.28;10513899;28;20388;-77
2021/03/31 01:19:27;;;;;;;18.92;10.05;;;;;;;10.97;58.18;102303.78;10512335;28;20039;-77
2021/03/31 01:25:13;;;;;;;22.92;10.93;;;;;;;10.81;56.78;102278.38;10510883;28;20032;-78
2021/03/31 01:30:21;;;;;;;17.45;10.13;;;;;;;11.02;55.95;102293.91;10512075;28;20036;-78
2021/03/31 01:35:25;;;;;;;21.08;10.98;;;;;;;11.01;54.87;102298.53;10498361;28;20042;-77
2021/03/31 01:40:26;;;;;;;21.00;11.07;;;;;;;10.69;55.34;102243.13;10484562;28;20054;-76
2021/03/31 01:45:30;;;;;;;19.83;11.02;;;;;;;10.94;56.23;102304.44;10514527;28;20036;-75
2021/03/31 01:50:31;;;;;;;27.05;11.35;;;;;;;10.78;56.46;102279.06;10486307;28;20031;-75
2021/03/31 01:55:33;;;;;;;21.65;11.75;;;;;;;10.77;57.32;102288.28;10508042;28;20032;-76
2021/03/31 02:00:33;;;;;;;20.83;11.43;;;;;;;10.40;57.89;102228.47;10506727;28;20032;-76
2021/03/31 02:05:35;;;;;;;23.55;10.65;;;;;;;10.54;57.61;102258.00;10499518;28;20059;-76
2021/03/31 02:10:36;;;;;;;21.77;10.85;;;;;;;10.57;57.94;102268.94;10476662;28;20028;-76
2021/03/31 02:15:37;;;;;;;23.05;10.73;;;;;;;9.97;58.45;102178.03;10520220;28;20496;-76
2021/03/31 02:20:38;;;;;;;21.58;11.25;;;;;;;10.29;58.52;102240.75;10490516;28;20032;-77
2021/03/31 02:25:38;;;;;;;21.48;11.35;;;;;;;10.43;58.40;102268.34;10512962;28;20067;-76
2021/03/31 02:30:39;;;;;;;21.38;11.00;;;;;;;10.29;58.86;102246.16;10513019;28;20104;-77
2021/03/31 02:35:40;;;;;;;25.45;11.57;;;;;;;10.01;58.71;102205.97;10504642;28;20093;-77
2021/03/31 02:40:44;;;;;;;21.38;11.93;;;;;;;9.95;60.00;102204.56;10494596;28;20028;-76
2021/03/31 02:45:51;;;;;;;23.70;11.10;;;;;;;10.15;60.93;102247.09;10515647;28;20028;-76
2021/03/31 02:50:56;;;;;;;23.30;11.15;;;;;;;10.07;61.46;102239.81;10507269;28;20044;-76
2021/03/31 02:55:58;;;;;;;22.70;11.38;;;;;;;10.12;62.79;102242.34;10517810;28;20119;-76
2021/03/31 03:00:59;;;;;;;20.10;11.75;;;;;;;10.04;63.71;102224.25;10497446;28;20032;-77
2021/03/31 03:06:00;;;;;;;23.35;10.30;;;;;;;9.85;64.53;102221.09;10524838;27;20058;-77
2021/03/31 03:11:01;;;;;;;21.40;12.05;;;;;;;9.79;64.69;102216.97;10549726;27;20043;-76
2021/03/31 03:16:04;;;;;;;19.55;11.23;;;;;;;9.88;64.90;102242.88;10546070;27;20034;-76
2021/03/31 03:21:05;;;;;;;20.27;11.50;;;;;;;9.71;65.68;102222.06;10560550;27;20497;-76
2021/03/31 03:26:06;;;;;;;22.17;11.45;;;;;;;9.44;66.12;102179.22;10555967;27;20540;-76
2021/03/31 03:31:08;;;;;;;16.92;11.20;;;;;;;9.61;67.46;102221.59;10555779;28;20036;-75
2021/03/31 03:36:12;;;;;;;17.80;11.98;;;;;;;9.44;67.33;102190.00;10538136;28;20036;-76
2021/03/31 03:41:13;;;;;;;23.38;11.02;;;;;;;9.09;68.00;102157.63;10557853;27;20020;-76
2021/03/31 03:46:15;;;;;;;17.23;10.77;;;;;;;9.20;68.42;102183.19;10560311;27;20043;-76
2021/03/31 03:51:15;;;;;;;18.58;11.20;;;;;;;9.13;68.92;102185.56;10541439;27;20050;-75
2021/03/31 03:56:16;;;;;;;17.90;10.20;;;;;;;9.09;68.78;102179.19;10539347;27;20473;-75
2021/03/31 04:01:16;;;;;;;19.70;11.20;;;;;;;8.92;69.24;102163.00;10539676;27;20039;-75
2021/03/31 04:06:17;;;;;;;20.42;11.23;;;;;;;8.63;69.38;102129.31;10553770;27;20055;-75
2021/03/31 04:11:17;;;;;;;17.30;10.32;;;;;;;9.03;69.57;102196.63;10556044;27;20039;-76
2021/03/31 04:16:18;;;;;;;20.30;10.40;;;;;;;9.02;69.70;102200.44;10550428;28;20035;-76
2021/03/31 04:21:19;;;;;;;19.50;10.80;;;;;;;8.89;69.97;102184.09;10554356;27;20035;-77
2021/03/31 04:26:20;;;;;;;18.90;10.98;;;;;;;8.75;70.37;102163.75;10542914;28;20120;-76
2021/03/31 04:31:22;;;;;;;21.73;10.98;;;;;;;8.98;70.56;102204.88;10564371;27;20039;-78
2021/03/31 04:36:23;;;;;;;23.87;12.07;;;;;;;8.94;71.27;102209.34;10517131;28;20039;-77
2021/03/31 04:41:23;;;;;;;16.42;10.77;;;;;;;8.92;71.40;102200.75;10541547;27;20108;-75
2021/03/31 04:46:24;;;;;;;19.75;10.82;;;;;;;8.59;70.94;102166.09;10538131;28;20027;-76
2021/03/31 04:51:24;;;;;;;18.10;10.02;;;;;;;8.80;71.30;102204.84;10526191;28;20119;-76
2021/03/31 04:56:24;;;;;;;21.15;10.95;;;;;;;8.57;72.25;102173.69;10555593;28;20165;-76
2021/03/31 05:01:25;;;;;;;25.30;15.48;;;;;;;8.76;72.09;102197.69;10531308;28;20032;-77
2021/03/31 05:06:25;;;;;;;25.00;11.68;;;;;;;8.41;72.74;102141.78;10539715;28;20063;-78
2021/03/31 05:11:27;;;;;;;21.00;11.48;;;;;;;8.71;73.20;102201.31;10551580;28;20046;-76
2021/03/31 05:16:27;;;;;;;25.40;14.13;;;;;;;8.32;73.10;102148.22;10544449;28;20439;-76
2021/03/31 05:21:28;;;;;;;20.40;11.15;;;;;;;8.61;72.87;102201.63;10546663;28;20032;-76
2021/03/31 05:26:28;;;;;;;20.73;13.07;;;;;;;8.50;72.44;102173.34;10550531;28;20392;-78
2021/03/31 05:31:29;;;;;;;23.50;12.52;;;;;;;8.59;72.65;102187.66;10561407;28;20085;-75
2021/03/31 05:36:30;;;;;;;21.77;12.57;;;;;;;8.55;72.34;102182.09;10536794;28;20061;-76
2021/03/31 05:41:30;;;;;;;20.75;11.27;;;;;;;8.20;72.57;102138.03;10533426;28;20036;-76
2021/03/31 05:46:31;;;;;;;18.45;11.45;;;;;;;8.59;72.65;102182.28;10544064;28;20031;-74
2021/03/31 05:51:32;;;;;;;35.00;20.48;;;;;;;8.37;72.01;102148.88;10547434;28;20031;-75
2021/03/31 05:56:33;;;;;;;28.55;16.65;;;;;;;8.62;71.80;102177.03;10535940;28;20095;-78
2021/03/31 06:01:36;;;;;;;27.10;16.08;;;;;;;8.72;71.62;102175.94;10533865;28;20111;-76
2021/03/31 06:06:37;;;;;;;25.75;14.38;;;;;;;8.88;71.35;102190.56;10528828;28;20078;-76
2021/03/31 06:11:49;;;;;;;27.38;12.85;;;;;;;8.86;70.08;102138.84;10558133;28;20628;-77
2021/03/31 06:16:49;;;;;;;23.13;13.67;;;;;;;9.49;68.07;102187.13;10529600;28;20039;-76
2021/03/31 06:22:15;;;;;;;27.17;13.95;;;;;;;9.42;67.46;102138.25;10550748;28;20029;-76
2021/03/31 06:27:26;;;;;;;30.27;14.77;;;;;;;9.76;66.43;102159.00;10548758;28;20056;-76
2021/03/31 06:32:38;;;;;;;30.40;14.65;;;;;;;10.09;65.45;102170.03;10549358;28;20388;-76
2021/03/31 06:37:39;;;;;;;24.45;12.65;;;;;;;10.14;64.76;102153.66;10538735;28;20054;-76
2021/03/31 06:42:45;;;;;;;21.00;13.00;;;;;;;10.29;63.71;102127.22;10537748;28;20048;-78
2021/03/31 06:47:49;;;;;;;24.70;12.60;;;;;;;10.76;63.46;102178.50;10560032;28;20036;-76
2021/03/31 06:53:00;;;;;;;29.15;14.55;;;;;;;10.47;61.40;102053.03;10559798;28;20093;-77
2021/03/31 06:58:03;;;;;;;24.83;13.77;;;;;;;11.31;59.61;102128.75;10563757;27;20461;-77
2021/03/31 07:03:06;;;;;;;22.92;13.10;;;;;;;11.71;58.41;102128.22;10568403;28;20320;-77
2021/03/31 07:08:11;;;;;;;26.20;12.55;;;;;;;12.09;56.94;102140.72;10555943;28;20097;-78
2021/03/31 07:13:32;;;;;;;31.80;14.32;;;;;;;12.72;54.17;102177.53;10536335;28;20040;-77
2021/03/31 07:18:34;;;;;;;23.27;13.65;;;;;;;12.92;54.65;102170.41;10557350;28;20039;-78
2021/03/31 07:23:34;;;;;;;38.60;16.07;;;;;;;12.76;54.50;102135.03;10571989;28;20383;-78
2021/03/31 07:28:35;;;;;;;25.67;14.77;;;;;;;13.18;53.19;102156.41;10569715;27;20061;-76
2021/03/31 07:33:42;;;;;;;26.40;14.98;;;;;;;13.37;52.90;102159.31;10541452;28;20346;-77
2021/03/31 07:38:44;;;;;;;27.85;14.77;;;;;;;13.34;52.38;102132.84;10568086;28;20062;-77
2021/03/31 07:43:45;;;;;;;23.27;13.90;;;;;;;13.86;51.18;102169.94;10548267;28;20043;-77
2021/03/31 07:48:46;;;;;;;27.20;16.17;;;;;;;13.82;50.42;102131.00;10526578;28;20039;-77
2021/03/31 07:53:50;;;;;;;34.72;16.73;;;;;;;14.11;50.59;102142.56;10556437;28;20038;-77
2021/03/31 07:59:06;;;;;;;29.20;15.05;;;;;;;14.56;49.56;102157.66;10560887;28;20059;-77
2021/03/31 08:04:08;;;;;;;25.73;15.45;;;;;;;14.77;50.03;102169.03;10562270;28;20602;-76
2021/03/31 08:09:19;;;;;;;28.02;16.35;;;;;;;15.18;48.74;102169.50;10547790;28;20043;-76
2021/03/31 08:14:30;;;;;;;26.83;16.42;;;;;;;17.36;43.36;102165.19;10543803;28;20043;-79
2021/03/31 08:19:32;;;;;;;31.27;17.77;;;;;;;20.01;37.29;102142.03;10544891;28;20036;-77
2021/03/31 08:24:43;;;;;;;31.38;18.40;;;;;;;21.11;35.01;102119.00;10562256;28;20027;-76
2021/03/31 08:29:47;;;;;;;34.40;18.80;;;;;;;22.34;33.12;102147.22;10544839;28;20845;-77
2021/03/31 08:34:48;;;;;;;33.10;21.02;;;;;;;22.78;32.54;102148.28;10566768;28;20036;-75
2021/03/31 08:39:49;;;;;;;35.90;22.10;;;;;;;23.16;31.98;102139.94;10548483;28;20057;-76
2021/03/31 08:44:57;;;;;;;43.77;22.47;;;;;;;24.27;31.08;102142.97;10539736;28;20027;-77
2021/03/31 08:50:08;;;;;;;39.40;24.00;;;;;;;24.38;29.93;102121.41;10553252;28;20032;-76
2021/03/31 08:55:11;;;;;;;40.10;25.83;;;;;;;25.43;28.45;102081.31;10558941;28;20036;-77
2021/03/31 09:00:13;;;;;;;44.22;26.95;;;;;;;25.06;28.68;102110.97;10555126;28;20024;-77
2021/03/31 09:05:14;;;;;;;41.33;25.90;;;;;;;25.56;28.80;102134.75;10562826;28;20395;-78
2021/03/31 09:10:15;;;;;;;;;;;;;;;25.72;28.34;102131.97;10539698;28;20035;-78
2021/03/31 09:15:16;;;;;;;40.93;27.80;;;;;;;25.97;27.97;102097.38;10555137;28;20359;-76
2021/03/31 09:20:18;;;;;;;51.07;31.47;;;;;;;25.69;28.05;102121.00;10544295;28;20041;-77
2021/03/31 09:25:19;;;;;;;44.95;29.73;;;;;;;26.52;27.37;102120.41;10541630;28;20031;-77
2021/03/31 09:30:22;;;;;;;;;;;;;;;27.15;26.74;102109.88;10548355;28;20122;-76
2021/03/31 09:35:22;;;;;;;44.67;31.20;;;;;;;27.09;26.51;102103.31;10544485;28;19915;-76
2021/03/31 09:40:29;;;;;;;46.47;30.57;;;;;;;27.41;25.62;102061.44;10538315;28;20024;-77
2021/03/31 09:45:31;;;;;;;44.20;29.45;;;;;;;27.53;25.44;102082.06;10539659;28;20086;-76
2021/03/31 09:50:34;;;;;;;48.75;30.83;;;;;;;27.82;24.69;102095.78;10554272;28;20047;-76
2021/03/31 09:55:37;;;;;;;58.22;33.80;;;;;;;27.55;25.41;102109.41;10538077;28;20054;-77
2021/03/31 10:00:40;;;;;;;47.28;29.60;;;;;;;26.82;24.87;102098.97;10539859;28;20456;-78
2021/03/31 10:05:41;;;;;;;48.00;31.02;;;;;;;26.70;25.22;102069.22;10541219;28;20052;-76
2021/03/31 10:10:53;;;;;;;50.00;30.73;;;;;;;27.09;24.59;102053.34;10542192;28;20043;-77
2021/03/31 10:15:59;;;;;;;47.42;32.05;;;;;;;27.22;25.54;102076.34;10517867;28;20510;-79
2021/03/31 10:21:02;;;;;;;47.17;30.75;;;;;;;28.30;24.74;102089.38;10541239;28;20142;-79
2021/03/31 10:26:24;;;;;;;38.15;24.38;;;;;;;28.09;22.22;102086.16;10555008;28;20036;-78
2021/03/31 10:31:36;;;;;;;38.55;24.50;;;;;;;27.56;23.10;102045.09;10522854;28;20028;-78
2021/03/31 10:52:16;;;;;;;42.33;25.33;;;;;;;26.71;24.23;102081.84;10550710;28;20049;-78
2021/03/31 10:57:16;;;;;;;38.17;24.30;;;;;;;26.34;24.33;102086.88;10569754;28;20582;-77
2021/03/31 11:02:17;;;;;;;43.93;26.20;;;;;;;26.10;25.23;102076.00;10543521;28;20069;-78
2021/03/31 11:07:20;;;;;;;44.73;25.07;;;;;;;25.51;26.23;102066.06;10542365;28;20126;-77
2021/03/31 11:12:23;;;;;;;35.97;23.27;;;;;;;25.79;25.77;102074.88;10541476;28;20047;-77
2021/03/31 11:17:36;;;;;;;37.42;23.17;;;;;;;25.19;26.21;102053.81;10556126;28;20028;-77
2021/03/31 11:27:55;;;;;;;37.47;22.17;;;;;;;25.61;25.79;102017.97;10551230;28;20032;-78
2021/03/31 11:32:56;;;;;;;33.65;20.90;;;;;;;26.04;24.62;102041.00;10551670;28;20408;-78
2021/03/31 11:37:56;;;;;;;40.95;23.45;;;;;;;25.91;23.90;102007.69;10548684;27;20036;-77
2021/03/31 11:42:57;;;;;;;41.30;22.80;;;;;;;26.01;24.00;102039.88;10549069;28;20131;-76
2021/03/31 11:47:58;;;;;;;47.05;26.65;;;;;;;25.98;25.29;102026.13;10552226;28;20043;-78
2021/03/31 11:52:58;;;;;;;40.57;24.57;;;;;;;25.76;25.97;102020.34;10555697;27;20043;-76
2021/03/31 11:57:59;;;;;;;39.70;21.13;;;;;;;25.66;24.47;101984.22;10559940;28;20032;-79
2021/03/31 12:02:59;;;;;;;30.98;18.50;;;;;;;26.01;23.48;102026.03;10540641;28;20036;-76
2021/03/31 12:08:00;;;;;;;30.48;16.02;;;;;;;25.97;23.70;101997.63;10526195;28;20354;-75
2021/03/31 12:13:00;;;;;;;30.92;15.93;;;;;;;26.06;23.01;102017.16;10506731;28;20050;-77
2021/03/31 12:18:01;;;;;;;28.37;15.10;;;;;;;25.93;22.70;102005.25;10517717;28;20082;-75
2021/03/31 12:23:02;;;;;;;33.80;18.43;;;;;;;25.96;24.19;102007.16;10513396;28;20412;-75
2021/03/31 12:28:02;;;;;;;19.40;10.87;;;;;;;25.97;21.45;101969.94;10516319;28;20040;-76
2021/03/31 12:33:03;;;;;;;12.43;6.00;;;;;;;25.87;20.21;101999.50;10514747;28;20388;-76
2021/03/31 12:38:03;;;;;;;24.07;10.97;;;;;;;26.37;21.77;101997.28;10488597;28;20036;-74
2021/03/31 12:43:04;;;;;;;14.05;7.82;;;;;;;26.09;22.22;101971.94;10502175;28;20090;-76
2021/03/31 12:48:06;;;;;;;15.63;9.10;;;;;;;26.02;21.61;101977.69;10511818;28;20024;-76
2021/03/31 12:53:32;;;;;;;18.42;8.82;;;;;;;26.40;21.82;101990.84;10518494;28;20040;-76
2021/03/31 12:58:27;;;;;;;16.55;8.60;;;;;;;26.42;21.58;101988.41;10510220;28;20040;-76
2021/03/31 13:03:28;;;;;;;13.27;7.80;;;;;;;26.50;21.15;101978.66;10481322;28;20044;-76
2021/03/31 13:08:28;;;;;;;15.47;7.57;;;;;;;26.53;21.56;101961.16;10504985;28;20073;-77
2021/03/31 13:33:58;;;;;;;13.13;7.77;;;;;;;26.84;20.99;101963.38;10510437;28;20043;-76
2021/03/31 13:39:04;;;;;;;12.55;7.50;;;;;;;26.72;21.13;101958.63;10525982;28;20063;-84
2021/03/31 13:44:05;;;;;;;13.90;7.32;;;;;;;26.95;21.40;101952.72;10478784;28;20032;-83
2021/03/31 13:49:09;;;;;;;17.43;10.23;;;;;;;26.17;21.85;101856.13;10504295;28;20051;-83
2021/03/31 13:54:09;;;;;;;18.42;9.63;;;;;;;26.70;22.16;101947.19;10513018;28;20454;-82
2021/03/31 13:59:10;;;;;;;27.53;15.33;;;;;;;26.36;23.36;101907.00;10505028;28;20028;-85
2021/03/31 14:04:11;;;;;;;18.63;10.43;;;;;;;26.62;23.26;101934.75;10508794;28;20164;-83
2021/03/31 14:09:11;;;;;;;13.90;8.10;;;;;;;26.57;22.54;101927.78;10506832;28;20062;-85
2021/03/31 14:14:14;;;;;;;18.48;10.23;;;;;;;26.78;22.65;101931.84;10521339;28;20764;-94
2021/03/31 14:19:14;;;;;;;21.35;11.10;;;;;;;26.02;23.59;101894.59;10506391;28;20032;-82
2021/03/31 14:24:15;;;;;;;14.57;8.17;;;;;;;25.83;23.39;101892.75;10519876;28;20036;-81
2021/03/31 14:29:15;;;;;;;18.80;9.18;;;;;;;25.82;23.11;101907.81;10518513;28;20032;-82
2021/03/31 14:34:16;;;;;;;15.77;8.83;;;;;;;25.63;23.17;101913.06;10501801;28;20093;-84
2021/03/31 14:39:16;;;;;;;17.60;11.53;;;;;;;25.89;23.56;101897.34;10506645;28;20358;-80
2021/03/31 14:44:17;;;;;;;12.68;6.95;;;;;;;26.13;22.76;101895.03;10524990;28;20048;-80
2021/03/31 14:49:18;;;;;;;15.73;9.27;;;;;;;26.06;22.53;101888.94;10519611;28;20094;-79
2021/03/31 14:59:43;;;;;;;13.32;7.97;;;;;;;25.93;23.33;101880.59;10527999;28;20539;-81
2021/03/31 15:04:44;;;;;;;16.40;10.50;;;;;;;25.86;23.23;101853.88;10515847;28;20972;-80
2021/03/31 15:09:44;;;;;;;16.95;9.70;;;;;;;25.98;22.91;101893.13;10539665;28;20108;-82
2021/03/31 15:14:45;;;;;;;14.05;8.98;;;;;;;25.95;23.09;101889.25;10559734;28;20963;-84
2021/03/31 15:19:54;;;;;;;16.73;9.05;;;;;;;26.00;23.19;101879.63;10546273;27;20028;-86
2021/03/31 15:24:57;;;;;;;12.95;7.47;;;;;;;25.80;22.23;101877.00;10556912;28;20085;-84
2021/03/31 15:29:58;;;;;;;17.40;10.63;;;;;;;25.67;22.86;101875.00;10549826;28;20047;-87
2021/03/31 15:34:59;;;;;;;16.05;10.02;;;;;;;25.72;23.54;101871.66;10545906;28;20027;-88
2021/03/31 15:39:59;;;;;;;19.70;12.77;;;;;;;25.70;23.65;101863.06;10558228;28;20036;-84
2021/03/31 15:45:01;;;;;;;27.15;14.38;;;;;;;25.57;24.30;101876.06;10566366;28;20036;-87
2021/03/31 15:50:03;;;;;;;26.30;15.75;;;;;;;25.47;24.40;101866.06;10542166;28;20044;-90
2021/03/31 15:55:04;;;;;;;24.17;15.55;;;;;;;25.36;24.58;101832.41;10569924;28;20040;-92
2021/03/31 16:00:07;;;;;;;24.07;14.97;;;;;;;25.56;25.08;101857.91;10570378;28;20398;-85
2021/03/31 16:05:12;;;;;;;29.85;18.50;;;;;;;24.88;25.64;101788.59;10533276;28;20080;-80
2021/03/31 16:10:13;;;;;;;31.63;18.75;;;;;;;25.07;24.82;101866.34;10548773;28;20055;-86
2021/03/31 16:15:14;;;;;;;28.60;17.15;;;;;;;25.03;25.22;101860.13;10523263;28;20031;-82
2021/03/31 16:20:15;;;;;;;26.45;17.20;;;;;;;24.93;25.34;101812.16;10545805;28;20046;-81
2021/03/31 16:25:17;;;;;;;25.30;17.30;;;;;;;25.01;24.89;101845.94;10548373;28;20023;-78
2021/03/31 16:35:38;;;;;;;27.75;15.73;;;;;;;25.06;26.12;101842.66;10522730;28;20036;-78
2021/03/31 16:40:38;;;;;;;24.80;16.08;;;;;;;24.75;25.79;101807.09;10563256;28;20040;-77
2021/03/31 16:45:40;;;;;;;26.50;15.15;;;;;;;24.55;26.26;101803.66;10547134;28;20479;-78
2021/03/31 16:50:41;;;;;;;25.17;15.27;;;;;;;24.02;26.59;101729.91;10556618;28;20475;-77
2021/03/31 16:55:41;;;;;;;23.85;15.80;;;;;;;24.14;26.79;101753.31;10555574;28;20127;-81
2021/03/31 17:00:42;;;;;;;25.10;16.30;;;;;;;24.60;26.29;101850.13;10541943;28;20544;-82
2021/03/31 17:05:42;;;;;;;22.52;15.27;;;;;;;24.31;26.64;101828.66;10531245;28;20121;-81
2021/03/31 17:10:47;;;;;;;23.70;14.35;;;;;;;24.17;27.51;101851.09;10540316;28;20150;-77
2021/03/31 17:15:48;;;;;;;26.48;15.65;;;;;;;23.94;27.56;101830.72;10526527;28;20476;-83
2021/03/31 17:20:48;;;;;;;24.00;14.77;;;;;;;23.63;28.16;101830.13;10535794;28;20131;-82
2021/03/31 17:25:49;;;;;;;23.38;14.43;;;;;;;23.29;29.05;101811.91;10513703;28;20675;-80
2021/03/31 17:30:49;;;;;;;25.48;15.30;;;;;;;22.95;29.15;101792.81;10524138;28;20105;-84
2021/03/31 17:35:50;;;;;;;21.90;13.70;;;;;;;22.79;30.33;101797.03;10560702;28;20036;-79
2021/03/31 17:40:52;;;;;;;25.05;14.32;;;;;;;22.98;30.89;101849.88;10550862;28;20285;-79
2021/03/31 17:45:53;;;;;;;23.60;14.60;;;;;;;22.69;30.94;101842.06;10540303;28;20101;-85
2021/03/31 17:50:53;;;;;;;21.77;14.02;;;;;;;22.05;31.23;101771.44;10537658;28;20829;-82
2021/03/31 17:55:54;;;;;;;25.55;16.30;;;;;;;22.17;31.89;101812.94;10551523;28;20039;-82
2021/03/31 18:00:54;;;;;;;28.27;16.85;;;;;;;22.27;32.70;101860.84;10538455;28;20229;-79
2021/03/31 18:05:55;;;;;;;26.15;17.02;;;;;;;21.59;33.24;101794.84;10516628;28;21456;-81
2021/03/31 18:10:56;;;;;;;30.42;16.88;;;;;;;21.61;34.10;101820.00;10562243;28;20046;-81
2021/03/31 18:15:56;;;;;;;28.60;17.20;;;;;;;21.72;34.69;101875.69;10516764;28;20032;-82
2021/03/31 18:20:57;;;;;;;30.67;17.42;;;;;;;21.20;35.62;101823.56;10535749;28;20024;-83
2021/03/31 18:25:57;;;;;;;31.88;17.88;;;;;;;21.38;36.10;101875.63;10534185;28;20043;-80
2021/03/31 18:30:58;;;;;;;31.15;17.30;;;;;;;20.98;36.27;101845.78;10546915;28;20118;-79
2021/03/31 18:35:59;;;;;;;32.05;18.33;;;;;;;20.95;37.26;101865.03;10551005;28;20165;-79
2021/03/31 18:41:02;;;;;;;26.17;15.90;;;;;;;20.56;37.59;101882.63;10554351;28;20106;-81
2021/03/31 18:46:03;;;;;;;28.33;15.95;;;;;;;20.18;38.40;101861.25;10514472;28;20307;-85
2021/03/31 18:51:04;;;;;;;29.00;16.30;;;;;;;19.82;39.15;101839.47;10558025;28;20027;-89
2021/03/31 18:56:04;;;;;;;30.48;15.25;;;;;;;19.85;40.12;101888.06;10559176;28;20032;-88
2021/03/31 19:01:05;;;;;;;32.63;16.60;;;;;;;19.53;40.27;101849.72;10562958;28;20046;-84
2021/03/31 19:06:06;;;;;;;31.13;16.42;;;;;;;19.39;41.00;101845.03;10543302;28;20044;-82
2021/03/31 19:11:07;;;;;;;30.48;18.33;;;;;;;19.61;41.47;101888.88;10559668;28;20055;-84
2021/03/31 19:16:08;;;;;;;28.25;16.33;;;;;;;19.40;41.89;101879.53;10560809;28;20160;-86
2021/03/31 19:21:09;;;;;;;28.48;16.30;;;;;;;19.15;42.08;101867.81;10542489;28;20076;-84
2021/03/31 19:26:09;;;;;;;31.98;17.48;;;;;;;19.11;42.77;101888.94;10586744;28;20293;-78
2021/03/31 19:31:10;;;;;;;28.92;16.85;;;;;;;18.97;43.38;101890.50;10546149;28;20042;-82
2021/03/31 19:36:11;;;;;;;40.83;18.15;;;;;;;18.71;44.01;101866.22;10556709;28;20019;-81
2021/03/31 19:41:11;;;;;;;32.92;17.23;;;;;;;18.53;44.30;101860.72;10566331;28;20038;-87
2021/03/31 19:46:11;;;;;;;34.15;17.85;;;;;;;18.32;44.84;101845.03;10544182;27;20032;-80
2021/03/31 19:51:12;;;;;;;36.72;18.58;;;;;;;18.25;45.82;101861.44;10571621;28;20072;-82
2021/03/31 19:56:13;;;;;;;37.22;19.65;;;;;;;18.44;46.56;101902.16;10574537;28;20039;-87
2021/03/31 20:01:13;;;;;;;36.70;21.15;;;;;;;18.41;46.95;101907.63;10544421;28;20040;-89
2021/03/31 20:06:14;;;;;;;44.60;21.42;;;;;;;18.04;46.97;101862.16;10545954;28;20052;-87
2021/03/31 20:11:15;;;;;;;39.15;19.25;;;;;;;18.13;47.43;101901.69;10562014;28;20654;-79
2021/03/31 20:16:16;;;;;;;31.48;17.95;;;;;;;17.93;48.31;101884.00;10540223;28;20069;-86
2021/03/31 20:21:17;;;;;;;30.60;16.80;;;;;;;17.84;48.88;101902.72;10551824;28;20023;-83
2021/03/31 20:26:18;;;;;;;29.98;16.38;;;;;;;17.41;49.69;101843.09;10539403;28;20472;-84
2021/03/31 20:31:21;;;;;;;32.97;17.15;;;;;;;17.74;50.04;101915.94;10571973;27;20544;-82
2021/03/31 20:36:22;;;;;;;37.17;18.77;;;;;;;17.39;50.24;101888.38;10573082;28;20042;-82
2021/03/31 20:41:23;;;;;;;30.73;17.40;;;;;;;17.31;50.61;101893.78;10572437;28;20085;-83
2021/03/31 20:46:24;;;;;;;36.30;20.38;;;;;;;17.38;51.06;101925.06;10568546;28;20400;-82
2021/03/31 20:51:25;;;;;;;35.42;18.48;;;;;;;17.03;51.98;101882.66;10536970;28;20123;-80
2021/03/31 20:56:26;;;;;;;31.58;17.20;;;;;;;16.95;52.34;101886.47;10533337;28;20058;-81
2021/03/31 21:01:27;;;;;;;30.20;17.33;;;;;;;17.05;51.84;101924.00;10562193;28;20047;-82
2021/03/31 21:06:28;;;;;;;35.13;18.90;;;;;;;17.04;52.75;101944.31;10561004;28;20127;-83
2021/03/31 21:11:28;;;;;;;37.42;19.73;;;;;;;16.94;53.06;101923.94;10525294;28;20126;-80
2021/03/31 21:16:29;;;;;;;37.83;21.08;;;;;;;16.92;51.75;101937.19;10551194;28;20072;-81
2021/03/31 21:21:30;;;;;;;35.55;19.58;;;;;;;16.49;53.86;101888.38;10545524;28;20200;-83
2021/03/31 21:26:30;;;;;;;44.28;21.38;;;;;;;16.64;53.82;101943.09;10529332;28;20040;-82
2021/03/31 21:31:32;;;;;;;38.92;19.27;;;;;;;16.47;54.50;101934.34;10543065;28;20035;-81
2021/03/31 21:36:33;;;;;;;38.40;19.27;;;;;;;16.36;55.23;101944.34;10536649;28;20031;-81
2021/03/31 21:41:33;;;;;;;34.75;19.80;;;;;;;15.96;55.63;101883.06;10547096;28;20050;-80
2021/03/31 21:46:34;;;;;;;28.42;17.17;;;;;;;16.23;56.42;101935.63;10538406;28;20103;-81
2021/03/31 21:51:34;;;;;;;33.03;17.38;;;;;;;16.18;57.49;101926.97;10545717;28;20039;-80
2021/03/31 21:56:35;;;;;;;39.08;19.42;;;;;;;16.11;57.99;101933.16;10533145;28;20169;-82
2021/03/31 22:01:35;;;;;;;28.30;17.40;;;;;;;16.14;57.80;101931.63;10531846;28;20032;-82
2021/03/31 22:06:36;;;;;;;30.27;17.30;;;;;;;16.04;58.46;101928.38;10536841;28;20048;-81
2021/03/31 22:11:37;;;;;;;39.03;20.45;;;;;;;15.91;57.93;101916.13;10541302;28;20115;-83
2021/03/31 22:16:38;;;;;;;39.22;20.90;;;;;;;16.03;57.43;101937.69;10527775;28;20035;-82
2021/03/31 22:21:39;;;;;;;35.03;19.77;;;;;;;16.10;58.33;101944.41;10540079;28;20181;-83
2021/03/31 22:26:39;;;;;;;33.10;19.85;;;;;;;16.13;57.71;101951.84;10544171;28;20040;-84
2021/03/31 22:31:40;;;;;;;38.78;21.20;;;;;;;16.09;57.60;101945.59;10557640;28;20702;-84
2021/03/31 22:36:40;;;;;;;36.92;20.92;;;;;;;16.00;58.24;101938.44;10547013;28;20038;-83
2021/03/31 22:41:41;;;;;;;41.92;22.83;;;;;;;15.93;58.32;101952.00;10561717;28;20046;-83
2021/03/31 22:46:41;;;;;;;38.83;22.33;;;;;;;15.90;59.13;101950.00;10550370;27;20555;-82
2021/03/31 22:51:43;;;;;;;39.78;21.20;;;;;;;15.90;58.90;101947.28;10558046;28;20039;-84
2021/03/31 22:56:43;;;;;;;37.30;20.98;;;;;;;15.79;59.38;101932.72;10535727;28;20046;-84
2021/03/31 23:01:45;;;;;;;33.50;20.35;;;;;;;15.80;59.68;101928.81;10592171;28;20032;-82
2021/03/31 23:06:46;;;;;;;39.92;22.35;;;;;;;15.32;58.33;101861.16;10574321;28;20063;-83
2021/03/31 23:11:46;;;;;;;38.50;20.85;;;;;;;15.47;59.02;101883.94;10570668;28;20040;-84
2021/03/31 23:16:47;;;;;;;38.17;19.67;;;;;;;15.82;59.08;101931.97;10564951;28;20525;-83
2021/03/31 23:21:48;;;;;;;36.60;21.80;;;;;;;15.72;59.61;101932.59;10546672;28;20081;-82
2021/03/31 23:26:48;;;;;;;27.08;16.77;;;;;;;15.65;61.31;101925.09;10561820;28;20553;-83
2021/03/31 23:31:49;;;;;;;35.97;19.70;;;;;;;15.20;60.70;101864.88;10564101;28;20047;-83
2021/03/31 23:36:49;;;;;;;34.78;19.25;;;;;;;15.70;60.36;101913.88;10563527;28;20036;-82